sensor_id;sensor_type;location;lat;lon;timestamp;P1;durP1;ratioP1;P2;durP2;ratioP2
6017;SDS011;3037;51.068;13.780;2022-10-16T00:00:37;20.63;;;14.03;;
6017;SDS011;3037;51.068;13.780;2022-10-16T00:03:03;15.07;;;13.57;;
6017;SDS011;3037;51.068;13.780;2022-10-16T00:05:30;24.53;;;14.20;;
6017;SDS011;3037;51.068;13.780;2022-10-16T00:07:56;16.70;;;13.10;;
6017;SDS011;3037;51.068;13.780;2022-10-16T00:10:21;16.37;;;14.67;;
6017;SDS011;3037;51.068;13.780;2022-10-16T00:12:47;15.20;;;13.13;;
6017;SDS011;3037;51.068;13.780;2022-10-16T00:15:13;15.83;;;13.20;;
6017;SDS011;3037;51.068;13.780;2022-10-16T00:17:39;20.97;;;13.57;;
6017;SDS011;3037;51.068;13.780;2022-10-16T00:20:05;13.97;;;12.63;;
6017;SDS011;3037;51.068;13.780;2022-10-16T00:22:31;16.47;;;13.47;;
6017;SDS011;3037;51.068;13.780;2022-10-16T00:24:57;21.40;;;14.97;;
6017;SDS011;3037;51.068;13.780;2022-10-16T00:27:22;17.13;;;12.60;;
6017;SDS011;3037;51.068;13.780;2022-10-16T00:29:51;14.40;;;12.70;;
6017;SDS011;3037;51.068;13.780;2022-10-16T00:32:18;14.83;;;12.93;;
6017;SDS011;3037;51.068;13.780;2022-10-16T00:34:44;16.17;;;14.47;;
6017;SDS011;3037;51.068;13.780;2022-10-16T00:37:10;15.33;;;13.23;;
6017;SDS011;3037;51.068;13.780;2022-10-16T00:39:35;16.70;;;12.57;;
6017;SDS011;3037;51.068;13.780;2022-10-16T00:42:01;13.77;;;12.50;;
6017;SDS011;3037;51.068;13.780;2022-10-16T00:44:42;15.30;;;13.67;;
6017;SDS011;3037;51.068;13.780;2022-10-16T00:47:09;14.83;;;13.27;;
6017;SDS011;3037;51.068;13.780;2022-10-16T00:49:37;13.27;;;11.90;;
6017;SDS011;3037;51.068;13.780;2022-10-16T00:52:03;14.73;;;13.27;;
6017;SDS011;3037;51.068;13.780;2022-10-16T00:54:31;15.80;;;13.23;;
6017;SDS011;3037;51.068;13.780;2022-10-16T00:56:59;12.77;;;11.57;;
6017;SDS011;3037;51.068;13.780;2022-10-16T01:01:55;13.70;;;12.33;;
6017;SDS011;3037;51.068;13.780;2022-10-16T01:04:23;15.70;;;12.43;;
6017;SDS011;3037;51.068;13.780;2022-10-16T01:12:06;13.67;;;11.47;;
6017;SDS011;3037;51.068;13.780;2022-10-16T01:17:35;15.70;;;12.97;;
6017;SDS011;3037;51.068;13.780;2022-10-16T01:31:13;13.43;;;12.13;;
6017;SDS011;3037;51.068;13.780;2022-10-16T01:33:43;14.53;;;11.10;;
6017;SDS011;3037;51.068;13.780;2022-10-16T01:36:13;14.20;;;11.90;;
6017;SDS011;3037;51.068;13.780;2022-10-16T01:38:41;13.13;;;11.50;;
6017;SDS011;3037;51.068;13.780;2022-10-16T01:41:20;12.90;;;11.70;;
6017;SDS011;3037;51.068;13.780;2022-10-16T01:46:27;13.13;;;11.80;;
6017;SDS011;3037;51.068;13.780;2022-10-16T01:48:56;13.17;;;11.87;;
6017;SDS011;3037;51.068;13.780;2022-10-16T01:51:22;14.73;;;13.23;;
6017;SDS011;3037;51.068;13.780;2022-10-16T01:53:50;13.60;;;12.20;;
6017;SDS011;3037;51.068;13.780;2022-10-16T01:56:19;14.80;;;13.30;;
6017;SDS011;3037;51.068;13.780;2022-10-16T01:58:49;13.97;;;12.50;;
6017;SDS011;3037;51.068;13.780;2022-10-16T02:01:20;14.40;;;13.00;;
6017;SDS011;3037;51.068;13.780;2022-10-16T02:03:48;14.93;;;13.60;;
6017;SDS011;3037;51.068;13.780;2022-10-16T02:06:17;15.33;;;13.10;;
6017;SDS011;3037;51.068;13.780;2022-10-16T02:08:43;15.37;;;13.90;;
6017;SDS011;3037;51.068;13.780;2022-10-16T02:11:09;17.53;;;14.20;;
6017;SDS011;3037;51.068;13.780;2022-10-16T02:13:37;18.60;;;15.43;;
6017;SDS011;3037;51.068;13.780;2022-10-16T02:16:07;16.07;;;14.17;;
6017;SDS011;3037;51.068;13.780;2022-10-16T02:18:34;15.63;;;14.03;;
6017;SDS011;3037;51.068;13.780;2022-10-16T02:26:31;16.00;;;14.43;;
6017;SDS011;3037;51.068;13.780;2022-10-16T02:29:05;16.53;;;14.53;;
6017;SDS011;3037;51.068;13.780;2022-10-16T02:31:36;22.93;;;15.83;;
6017;SDS011;3037;51.068;13.780;2022-10-16T02:34:06;18.53;;;14.70;;
6017;SDS011;3037;51.068;13.780;2022-10-16T02:36:33;17.33;;;15.63;;
6017;SDS011;3037;51.068;13.780;2022-10-16T02:39:00;17.43;;;14.20;;
6017;SDS011;3037;51.068;13.780;2022-10-16T02:41:28;14.90;;;13.40;;
6017;SDS011;3037;51.068;13.780;2022-10-16T02:43:55;16.17;;;14.47;;
6017;SDS011;3037;51.068;13.780;2022-10-16T02:46:20;13.67;;;12.30;;
6017;SDS011;3037;51.068;13.780;2022-10-16T02:48:46;14.40;;;12.97;;
6017;SDS011;3037;51.068;13.780;2022-10-16T02:51:12;15.00;;;13.50;;
6017;SDS011;3037;51.068;13.780;2022-10-16T02:53:38;14.33;;;12.97;;
6017;SDS011;3037;51.068;13.780;2022-10-16T02:56:03;15.97;;;14.37;;
6017;SDS011;3037;51.068;13.780;2022-10-16T02:58:29;13.60;;;12.30;;
6017;SDS011;3037;51.068;13.780;2022-10-16T03:00:55;14.57;;;13.10;;
6017;SDS011;3037;51.068;13.780;2022-10-16T03:03:20;26.33;;;13.40;;
6017;SDS011;3037;51.068;13.780;2022-10-16T03:05:46;14.83;;;13.27;;
6017;SDS011;3037;51.068;13.780;2022-10-16T03:08:12;15.43;;;12.63;;
6017;SDS011;3037;51.068;13.780;2022-10-16T03:10:38;13.23;;;11.97;;
6017;SDS011;3037;51.068;13.780;2022-10-16T03:13:03;13.93;;;12.67;;
6017;SDS011;3037;51.068;13.780;2022-10-16T03:15:29;15.17;;;12.50;;
6017;SDS011;3037;51.068;13.780;2022-10-16T03:17:57;12.80;;;11.50;;
6017;SDS011;3037;51.068;13.780;2022-10-16T03:20:23;12.07;;;11.00;;
6017;SDS011;3037;51.068;13.780;2022-10-16T03:22:49;12.47;;;11.27;;
6017;SDS011;3037;51.068;13.780;2022-10-16T03:25:15;13.80;;;12.50;;
6017;SDS011;3037;51.068;13.780;2022-10-16T03:27:41;15.60;;;11.57;;
6017;SDS011;3037;51.068;13.780;2022-10-16T03:30:07;13.63;;;12.33;;
6017;SDS011;3037;51.068;13.780;2022-10-16T03:32:33;15.40;;;11.00;;
6017;SDS011;3037;51.068;13.780;2022-10-16T03:34:58;14.30;;;12.80;;
6017;SDS011;3037;51.068;13.780;2022-10-16T03:37:24;16.90;;;11.87;;
6017;SDS011;3037;51.068;13.780;2022-10-16T03:39:50;20.47;;;13.03;;
6017;SDS011;3037;51.068;13.780;2022-10-16T03:42:15;13.90;;;12.33;;
6017;SDS011;3037;51.068;13.780;2022-10-16T03:44:41;14.67;;;13.17;;
6017;SDS011;3037;51.068;13.780;2022-10-16T03:47:06;13.60;;;12.20;;
6017;SDS011;3037;51.068;13.780;2022-10-16T03:49:32;13.13;;;11.90;;
6017;SDS011;3037;51.068;13.780;2022-10-16T03:51:57;14.70;;;12.37;;
6017;SDS011;3037;51.068;13.780;2022-10-16T03:54:23;13.10;;;11.70;;
6017;SDS011;3037;51.068;13.780;2022-10-16T03:56:48;15.40;;;13.30;;
6017;SDS011;3037;51.068;13.780;2022-10-16T03:59:14;17.23;;;11.97;;
6017;SDS011;3037;51.068;13.780;2022-10-16T04:01:40;13.50;;;12.10;;
6017;SDS011;3037;51.068;13.780;2022-10-16T04:04:05;14.67;;;13.27;;
6017;SDS011;3037;51.068;13.780;2022-10-16T04:06:31;15.43;;;13.90;;
6017;SDS011;3037;51.068;13.780;2022-10-16T04:08:56;13.87;;;12.57;;
6017;SDS011;3037;51.068;13.780;2022-10-16T04:11:22;16.50;;;13.07;;
6017;SDS011;3037;51.068;13.780;2022-10-16T04:13:48;14.27;;;12.87;;
6017;SDS011;3037;51.068;13.780;2022-10-16T04:16:13;14.10;;;12.80;;
6017;SDS011;3037;51.068;13.780;2022-10-16T04:18:39;14.40;;;12.90;;
6017;SDS011;3037;51.068;13.780;2022-10-16T04:21:05;16.97;;;11.93;;
6017;SDS011;3037;51.068;13.780;2022-10-16T04:23:31;14.50;;;13.00;;
6017;SDS011;3037;51.068;13.780;2022-10-16T04:25:57;14.63;;;13.30;;
6017;SDS011;3037;51.068;13.780;2022-10-16T04:28:24;14.37;;;13.00;;
6017;SDS011;3037;51.068;13.780;2022-10-16T04:30:49;17.00;;;11.93;;
6017;SDS011;3037;51.068;13.780;2022-10-16T04:33:15;16.27;;;14.60;;
6017;SDS011;3037;51.068;13.780;2022-10-16T04:35:41;20.10;;;13.57;;
6017;SDS011;3037;51.068;13.780;2022-10-16T04:38:06;14.40;;;12.90;;
6017;SDS011;3037;51.068;13.780;2022-10-16T04:40:32;15.53;;;14.13;;
6017;SDS011;3037;51.068;13.780;2022-10-16T04:42:58;14.97;;;12.70;;
6017;SDS011;3037;51.068;13.780;2022-10-16T04:45:24;14.77;;;13.37;;
6017;SDS011;3037;51.068;13.780;2022-10-16T04:47:50;17.17;;;14.17;;
6017;SDS011;3037;51.068;13.780;2022-10-16T04:50:15;15.43;;;13.90;;
6017;SDS011;3037;51.068;13.780;2022-10-16T04:52:41;15.40;;;13.80;;
6017;SDS011;3037;51.068;13.780;2022-10-16T04:55:07;15.80;;;14.23;;
6017;SDS011;3037;51.068;13.780;2022-10-16T04:57:32;14.17;;;12.83;;
6017;SDS011;3037;51.068;13.780;2022-10-16T04:59:58;21.07;;;16.30;;
6017;SDS011;3037;51.068;13.780;2022-10-16T05:02:24;16.80;;;15.20;;
6017;SDS011;3037;51.068;13.780;2022-10-16T05:04:50;24.47;;;14.17;;
6017;SDS011;3037;51.068;13.780;2022-10-16T05:07:16;15.30;;;13.90;;
6017;SDS011;3037;51.068;13.780;2022-10-16T05:09:42;14.27;;;12.77;;
6017;SDS011;3037;51.068;13.780;2022-10-16T05:12:07;20.13;;;14.60;;
6017;SDS011;3037;51.068;13.780;2022-10-16T05:14:33;14.67;;;13.40;;
6017;SDS011;3037;51.068;13.780;2022-10-16T05:16:59;13.80;;;12.50;;
6017;SDS011;3037;51.068;13.780;2022-10-16T05:19:25;21.53;;;12.43;;
6017;SDS011;3037;51.068;13.780;2022-10-16T05:21:51;15.67;;;13.80;;
6017;SDS011;3037;51.068;13.780;2022-10-16T05:24:16;14.23;;;12.93;;
6017;SDS011;3037;51.068;13.780;2022-10-16T05:26:42;13.83;;;12.53;;
6017;SDS011;3037;51.068;13.780;2022-10-16T05:29:08;14.23;;;12.97;;
6017;SDS011;3037;51.068;13.780;2022-10-16T05:31:34;14.50;;;13.10;;
6017;SDS011;3037;51.068;13.780;2022-10-16T05:33:59;13.80;;;12.40;;
6017;SDS011;3037;51.068;13.780;2022-10-16T05:36:25;14.40;;;13.00;;
6017;SDS011;3037;51.068;13.780;2022-10-16T05:38:51;16.57;;;13.90;;
6017;SDS011;3037;51.068;13.780;2022-10-16T05:41:17;14.20;;;12.80;;
6017;SDS011;3037;51.068;13.780;2022-10-16T05:43:49;14.97;;;12.70;;
6017;SDS011;3037;51.068;13.780;2022-10-16T05:46:15;17.70;;;13.00;;
6017;SDS011;3037;51.068;13.780;2022-10-16T05:48:41;16.03;;;13.10;;
6017;SDS011;3037;51.068;13.780;2022-10-16T05:51:07;15.03;;;12.40;;
6017;SDS011;3037;51.068;13.780;2022-10-16T05:53:36;15.50;;;12.87;;
6017;SDS011;3037;51.068;13.780;2022-10-16T05:56:03;13.70;;;12.37;;
6017;SDS011;3037;51.068;13.780;2022-10-16T05:58:30;13.20;;;11.57;;
6017;SDS011;3037;51.068;13.780;2022-10-16T06:00:58;15.00;;;12.63;;
6017;SDS011;3037;51.068;13.780;2022-10-16T06:03:26;13.77;;;12.53;;
6017;SDS011;3037;51.068;13.780;2022-10-16T06:05:51;13.20;;;11.50;;
6017;SDS011;3037;51.068;13.780;2022-10-16T06:08:18;29.77;;;12.20;;
6017;SDS011;3037;51.068;13.780;2022-10-16T06:10:45;13.60;;;12.10;;
6017;SDS011;3037;51.068;13.780;2022-10-16T06:13:11;13.43;;;12.20;;
6017;SDS011;3037;51.068;13.780;2022-10-16T06:15:38;13.10;;;11.83;;
6017;SDS011;3037;51.068;13.780;2022-10-16T06:18:06;17.50;;;12.67;;
6017;SDS011;3037;51.068;13.780;2022-10-16T06:20:32;12.90;;;11.40;;
6017;SDS011;3037;51.068;13.780;2022-10-16T06:22:58;14.17;;;12.77;;
6017;SDS011;3037;51.068;13.780;2022-10-16T06:25:23;14.80;;;12.50;;
6017;SDS011;3037;51.068;13.780;2022-10-16T06:27:49;13.70;;;12.43;;
6017;SDS011;3037;51.068;13.780;2022-10-16T06:30:14;15.17;;;13.43;;
6017;SDS011;3037;51.068;13.780;2022-10-16T06:32:40;14.93;;;13.53;;
6017;SDS011;3037;51.068;13.780;2022-10-16T06:35:05;15.63;;;14.13;;
6017;SDS011;3037;51.068;13.780;2022-10-16T06:37:31;15.20;;;13.70;;
6017;SDS011;3037;51.068;13.780;2022-10-16T06:39:57;14.33;;;13.00;;
6017;SDS011;3037;51.068;13.780;2022-10-16T06:42:22;15.77;;;14.27;;
6017;SDS011;3037;51.068;13.780;2022-10-16T06:44:48;16.30;;;14.70;;
6017;SDS011;3037;51.068;13.780;2022-10-16T06:47:13;20.47;;;14.83;;
6017;SDS011;3037;51.068;13.780;2022-10-16T06:49:39;21.60;;;14.67;;
6017;SDS011;3037;51.068;13.780;2022-10-16T06:52:04;18.53;;;16.63;;
6017;SDS011;3037;51.068;13.780;2022-10-16T06:54:30;18.30;;;15.40;;
6017;SDS011;3037;51.068;13.780;2022-10-16T06:56:56;18.50;;;16.70;;
6017;SDS011;3037;51.068;13.780;2022-10-16T06:59:21;18.13;;;16.30;;
6017;SDS011;3037;51.068;13.780;2022-10-16T07:01:47;16.83;;;15.23;;
6017;SDS011;3037;51.068;13.780;2022-10-16T07:04:13;15.60;;;14.10;;
6017;SDS011;3037;51.068;13.780;2022-10-16T07:06:38;15.33;;;13.90;;
6017;SDS011;3037;51.068;13.780;2022-10-16T07:09:06;16.60;;;15.00;;
6017;SDS011;3037;51.068;13.780;2022-10-16T07:11:37;18.57;;;15.60;;
6017;SDS011;3037;51.068;13.780;2022-10-16T07:14:04;17.60;;;15.57;;
6017;SDS011;3037;51.068;13.780;2022-10-16T07:16:37;19.60;;;16.93;;
6017;SDS011;3037;51.068;13.780;2022-10-16T07:19:03;15.87;;;14.20;;
6017;SDS011;3037;51.068;13.780;2022-10-16T07:21:29;17.13;;;15.43;;
6017;SDS011;3037;51.068;13.780;2022-10-16T07:24:00;16.20;;;14.80;;
6017;SDS011;3037;51.068;13.780;2022-10-16T07:26:29;16.63;;;14.20;;
6017;SDS011;3037;51.068;13.780;2022-10-16T07:28:56;15.17;;;13.53;;
6017;SDS011;3037;51.068;13.780;2022-10-16T07:31:22;16.77;;;13.20;;
6017;SDS011;3037;51.068;13.780;2022-10-16T07:33:48;13.97;;;12.67;;
6017;SDS011;3037;51.068;13.780;2022-10-16T07:36:15;18.20;;;13.30;;
6017;SDS011;3037;51.068;13.780;2022-10-16T07:38:42;13.17;;;12.03;;
6017;SDS011;3037;51.068;13.780;2022-10-16T07:41:09;14.70;;;12.10;;
6017;SDS011;3037;51.068;13.780;2022-10-16T07:43:37;14.40;;;13.10;;
6017;SDS011;3037;51.068;13.780;2022-10-16T07:46:02;13.97;;;12.53;;
6017;SDS011;3037;51.068;13.780;2022-10-16T07:48:29;14.97;;;13.67;;
6017;SDS011;3037;51.068;13.780;2022-10-16T07:50:57;13.53;;;12.17;;
6017;SDS011;3037;51.068;13.780;2022-10-16T07:53:24;14.90;;;13.60;;
6017;SDS011;3037;51.068;13.780;2022-10-16T07:55:50;13.67;;;12.40;;
6017;SDS011;3037;51.068;13.780;2022-10-16T07:58:15;14.63;;;13.23;;
6017;SDS011;3037;51.068;13.780;2022-10-16T08:00:41;14.97;;;13.60;;
6017;SDS011;3037;51.068;13.780;2022-10-16T08:03:07;14.00;;;12.60;;
6017;SDS011;3037;51.068;13.780;2022-10-16T08:05:33;15.17;;;13.57;;
6017;SDS011;3037;51.068;13.780;2022-10-16T08:07:59;14.17;;;12.93;;
6017;SDS011;3037;51.068;13.780;2022-10-16T08:10:26;14.80;;;13.10;;
6017;SDS011;3037;51.068;13.780;2022-10-16T08:12:52;12.50;;;11.40;;
6017;SDS011;3037;51.068;13.780;2022-10-16T08:15:18;13.50;;;11.80;;
6017;SDS011;3037;51.068;13.780;2022-10-16T08:17:53;12.23;;;11.13;;
6017;SDS011;3037;51.068;13.780;2022-10-16T08:20:22;10.90;;;9.80;;
6017;SDS011;3037;51.068;13.780;2022-10-16T08:22:48;11.07;;;9.67;;
6017;SDS011;3037;51.068;13.780;2022-10-16T08:25:14;10.97;;;9.97;;
6017;SDS011;3037;51.068;13.780;2022-10-16T08:27:39;12.27;;;11.10;;
6017;SDS011;3037;51.068;13.780;2022-10-16T08:30:05;11.63;;;10.67;;
6017;SDS011;3037;51.068;13.780;2022-10-16T08:32:31;21.10;;;10.20;;
6017;SDS011;3037;51.068;13.780;2022-10-16T08:34:57;10.17;;;9.37;;
6017;SDS011;3037;51.068;13.780;2022-10-16T08:37:22;9.20;;;8.50;;
6017;SDS011;3037;51.068;13.780;2022-10-16T08:39:48;8.57;;;8.00;;
6017;SDS011;3037;51.068;13.780;2022-10-16T08:50:24;7.17;;;6.63;;
6017;SDS011;3037;51.068;13.780;2022-10-16T08:52:52;6.63;;;5.73;;
6017;SDS011;3037;51.068;13.780;2022-10-16T08:55:30;6.07;;;5.77;;
6017;SDS011;3037;51.068;13.780;2022-10-16T08:57:59;5.50;;;5.20;;
6017;SDS011;3037;51.068;13.780;2022-10-16T09:00:26;6.17;;;5.67;;
6017;SDS011;3037;51.068;13.780;2022-10-16T09:02:59;5.97;;;5.67;;
6017;SDS011;3037;51.068;13.780;2022-10-16T09:08:26;6.80;;;6.20;;
6017;SDS011;3037;51.068;13.780;2022-10-16T09:17:03;6.03;;;5.60;;
6017;SDS011;3037;51.068;13.780;2022-10-16T09:19:54;11.63;;;7.53;;
6017;SDS011;3037;51.068;13.780;2022-10-16T09:22:28;6.53;;;6.13;;
6017;SDS011;3037;51.068;13.780;2022-10-16T09:24:58;12.00;;;10.83;;
6017;SDS011;3037;51.068;13.780;2022-10-16T09:27:25;7.20;;;6.60;;
6017;SDS011;3037;51.068;13.780;2022-10-16T09:29:51;15.70;;;13.00;;
6017;SDS011;3037;51.068;13.780;2022-10-16T09:32:20;17.27;;;12.10;;
6017;SDS011;3037;51.068;13.780;2022-10-16T09:34:48;16.33;;;11.73;;
6017;SDS011;3037;51.068;13.780;2022-10-16T09:37:17;7.20;;;6.60;;
6017;SDS011;3037;51.068;13.780;2022-10-16T09:39:48;7.83;;;6.10;;
6017;SDS011;3037;51.068;13.780;2022-10-16T09:42:18;5.87;;;5.33;;
6017;SDS011;3037;51.068;13.780;2022-10-16T09:44:53;7.63;;;6.97;;
6017;SDS011;3037;51.068;13.780;2022-10-16T09:47:28;5.40;;;5.10;;
6017;SDS011;3037;51.068;13.780;2022-10-16T09:50:04;10.10;;;9.00;;
6017;SDS011;3037;51.068;13.780;2022-10-16T09:52:45;10.30;;;7.23;;
6017;SDS011;3037;51.068;13.780;2022-10-16T09:55:14;4.70;;;4.40;;
6017;SDS011;3037;51.068;13.780;2022-10-16T09:57:52;9.20;;;6.37;;
6017;SDS011;3037;51.068;13.780;2022-10-16T10:00:18;13.03;;;9.67;;
6017;SDS011;3037;51.068;13.780;2022-10-16T10:02:45;5.37;;;3.77;;
6017;SDS011;3037;51.068;13.780;2022-10-16T10:05:18;3.30;;;3.20;;
6017;SDS011;3037;51.068;13.780;2022-10-16T10:07:54;4.67;;;3.70;;
6017;SDS011;3037;51.068;13.780;2022-10-16T10:10:22;4.17;;;3.90;;
6017;SDS011;3037;51.068;13.780;2022-10-16T10:12:48;5.03;;;3.53;;
6017;SDS011;3037;51.068;13.780;2022-10-16T10:15:14;3.60;;;3.40;;
6017;SDS011;3037;51.068;13.780;2022-10-16T10:17:56;10.60;;;7.20;;
6017;SDS011;3037;51.068;13.780;2022-10-16T10:20:24;9.63;;;7.70;;
6017;SDS011;3037;51.068;13.780;2022-10-16T10:22:50;5.50;;;5.00;;
6017;SDS011;3037;51.068;13.780;2022-10-16T10:27:51;4.23;;;3.90;;
6017;SDS011;3037;51.068;13.780;2022-10-16T10:33:30;2.23;;;2.13;;
6017;SDS011;3037;51.068;13.780;2022-10-16T10:36:15;2.47;;;2.37;;
6017;SDS011;3037;51.068;13.780;2022-10-16T10:41:49;2.70;;;2.60;;
6017;SDS011;3037;51.068;13.780;2022-10-16T10:53:25;0.90;;;0.90;;
6017;SDS011;3037;51.068;13.780;2022-10-16T10:56:39;1.00;;;0.90;;
6017;SDS011;3037;51.068;13.780;2022-10-16T10:59:07;0.70;;;0.70;;
6017;SDS011;3037;51.068;13.780;2022-10-16T11:04:19;1.30;;;0.90;;
6017;SDS011;3037;51.068;13.780;2022-10-16T11:06:50;1.00;;;1.00;;
6017;SDS011;3037;51.068;13.780;2022-10-16T11:09:27;2.50;;;1.00;;
6017;SDS011;3037;51.068;13.780;2022-10-16T11:12:00;1.20;;;1.10;;
6017;SDS011;3037;51.068;13.780;2022-10-16T11:14:56;1.23;;;1.20;;
6017;SDS011;3037;51.068;13.780;2022-10-16T11:17:42;1.00;;;1.00;;
6017;SDS011;3037;51.068;13.780;2022-10-16T11:22:54;1.53;;;1.00;;
6017;SDS011;3037;51.068;13.780;2022-10-16T11:25:29;0.90;;;0.90;;
6017;SDS011;3037;51.068;13.780;2022-10-16T11:28:10;2.17;;;0.83;;
6017;SDS011;3037;51.068;13.780;2022-10-16T11:30:49;1.23;;;0.97;;
6017;SDS011;3037;51.068;13.780;2022-10-16T11:41:49;0.60;;;0.60;;
6017;SDS011;3037;51.068;13.780;2022-10-16T11:46:48;3.47;;;0.90;;
6017;SDS011;3037;51.068;13.780;2022-10-16T11:49:30;1.10;;;0.90;;
6017;SDS011;3037;51.068;13.780;2022-10-16T11:52:05;0.83;;;0.83;;
6017;SDS011;3037;51.068;13.780;2022-10-16T11:57:32;1.67;;;0.80;;
6017;SDS011;3037;51.068;13.780;2022-10-16T12:00:10;8.17;;;1.47;;
6017;SDS011;3037;51.068;13.780;2022-10-16T12:08:19;1.20;;;0.93;;
6017;SDS011;3037;51.068;13.780;2022-10-16T12:10:46;1.77;;;0.80;;
6017;SDS011;3037;51.068;13.780;2022-10-16T12:16:06;0.60;;;0.60;;
6017;SDS011;3037;51.068;13.780;2022-10-16T12:18:39;1.10;;;1.00;;
6017;SDS011;3037;51.068;13.780;2022-10-16T12:21:05;3.47;;;1.10;;
6017;SDS011;3037;51.068;13.780;2022-10-16T12:23:46;1.60;;;0.70;;
6017;SDS011;3037;51.068;13.780;2022-10-16T12:26:36;9.93;;;0.80;;
6017;SDS011;3037;51.068;13.780;2022-10-16T12:29:14;2.27;;;1.00;;
6017;SDS011;3037;51.068;13.780;2022-10-16T12:31:48;1.00;;;1.00;;
6017;SDS011;3037;51.068;13.780;2022-10-16T12:37:10;2.00;;;0.97;;
6017;SDS011;3037;51.068;13.780;2022-10-16T12:39:45;4.90;;;1.60;;
6017;SDS011;3037;51.068;13.780;2022-10-16T12:44:54;3.67;;;3.30;;
6017;SDS011;3037;51.068;13.780;2022-10-16T12:47:21;1.97;;;1.10;;
6017;SDS011;3037;51.068;13.780;2022-10-16T12:49:53;1.50;;;1.40;;
6017;SDS011;3037;51.068;13.780;2022-10-16T12:52:38;4.13;;;1.20;;
6017;SDS011;3037;51.068;13.780;2022-10-16T12:55:05;3.37;;;1.33;;
6017;SDS011;3037;51.068;13.780;2022-10-16T12:58:00;1.10;;;1.10;;
6017;SDS011;3037;51.068;13.780;2022-10-16T13:00:32;1.20;;;1.10;;
6017;SDS011;3037;51.068;13.780;2022-10-16T13:12:06;1.27;;;1.17;;
6017;SDS011;3037;51.068;13.780;2022-10-16T13:14:42;1.10;;;1.10;;
6017;SDS011;3037;51.068;13.780;2022-10-16T13:17:47;4.70;;;0.90;;
6017;SDS011;3037;51.068;13.780;2022-10-16T13:23:00;2.97;;;0.90;;
6017;SDS011;3037;51.068;13.780;2022-10-16T13:25:38;1.23;;;1.17;;
6017;SDS011;3037;51.068;13.780;2022-10-16T13:28:21;1.20;;;1.20;;
6017;SDS011;3037;51.068;13.780;2022-10-16T13:30:54;1.83;;;1.00;;
6017;SDS011;3037;51.068;13.780;2022-10-16T13:35:55;0.90;;;0.90;;
6017;SDS011;3037;51.068;13.780;2022-10-16T13:38:25;1.70;;;1.13;;
6017;SDS011;3037;51.068;13.780;2022-10-16T13:40:59;2.53;;;1.23;;
6017;SDS011;3037;51.068;13.780;2022-10-16T13:43:49;1.60;;;1.20;;
6017;SDS011;3037;51.068;13.780;2022-10-16T13:46:17;0.90;;;0.90;;
6017;SDS011;3037;51.068;13.780;2022-10-16T13:48:59;2.30;;;1.03;;
6017;SDS011;3037;51.068;13.780;2022-10-16T13:51:28;2.63;;;1.20;;
6017;SDS011;3037;51.068;13.780;2022-10-16T13:53:57;1.00;;;1.00;;
6017;SDS011;3037;51.068;13.780;2022-10-16T13:56:27;2.23;;;1.10;;
6017;SDS011;3037;51.068;13.780;2022-10-16T13:59:04;1.70;;;1.60;;
6017;SDS011;3037;51.068;13.780;2022-10-16T14:01:42;0.90;;;0.90;;
6017;SDS011;3037;51.068;13.780;2022-10-16T14:04:10;1.33;;;1.10;;
6017;SDS011;3037;51.068;13.780;2022-10-16T14:06:40;0.87;;;0.87;;
6017;SDS011;3037;51.068;13.780;2022-10-16T14:09:08;2.30;;;1.73;;
6017;SDS011;3037;51.068;13.780;2022-10-16T14:11:50;147.17;;;36.03;;
6017;SDS011;3037;51.068;13.780;2022-10-16T14:14:19;146.77;;;38.27;;
6017;SDS011;3037;51.068;13.780;2022-10-16T14:16:45;178.70;;;44.63;;
6017;SDS011;3037;51.068;13.780;2022-10-16T14:21:52;68.87;;;21.47;;
6017;SDS011;3037;51.068;13.780;2022-10-16T14:26:56;95.43;;;23.53;;
6017;SDS011;3037;51.068;13.780;2022-10-16T14:29:23;49.03;;;17.90;;
6017;SDS011;3037;51.068;13.780;2022-10-16T14:32:05;57.30;;;16.07;;
6017;SDS011;3037;51.068;13.780;2022-10-16T14:34:35;28.07;;;4.50;;
6017;SDS011;3037;51.068;13.780;2022-10-16T14:37:22;24.60;;;4.80;;
6017;SDS011;3037;51.068;13.780;2022-10-16T14:39:52;22.07;;;7.83;;
6017;SDS011;3037;51.068;13.780;2022-10-16T14:42:19;3.40;;;3.10;;
6017;SDS011;3037;51.068;13.780;2022-10-16T14:44:49;28.67;;;8.30;;
6017;SDS011;3037;51.068;13.780;2022-10-16T14:47:18;5.27;;;3.10;;
6017;SDS011;3037;51.068;13.780;2022-10-16T14:49:49;3.20;;;2.57;;
6017;SDS011;3037;51.068;13.780;2022-10-16T14:52:23;11.87;;;3.13;;
6017;SDS011;3037;51.068;13.780;2022-10-16T14:54:49;9.63;;;2.47;;
6017;SDS011;3037;51.068;13.780;2022-10-16T14:57:17;6.47;;;1.97;;
6017;SDS011;3037;51.068;13.780;2022-10-16T14:59:44;3.73;;;2.30;;
6017;SDS011;3037;51.068;13.780;2022-10-16T15:04:51;3.47;;;1.60;;
6017;SDS011;3037;51.068;13.780;2022-10-16T15:07:16;5.53;;;1.97;;
6017;SDS011;3037;51.068;13.780;2022-10-16T15:09:42;2.10;;;1.90;;
6017;SDS011;3037;51.068;13.780;2022-10-16T15:12:08;2.47;;;1.67;;
6017;SDS011;3037;51.068;13.780;2022-10-16T15:14:33;1.60;;;1.60;;
6017;SDS011;3037;51.068;13.780;2022-10-16T15:16:59;2.80;;;2.10;;
6017;SDS011;3037;51.068;13.780;2022-10-16T15:19:24;3.17;;;1.70;;
6017;SDS011;3037;51.068;13.780;2022-10-16T15:21:50;2.57;;;2.37;;
6017;SDS011;3037;51.068;13.780;2022-10-16T15:24:16;1.97;;;1.87;;
6017;SDS011;3037;51.068;13.780;2022-10-16T15:26:41;2.40;;;1.40;;
6017;SDS011;3037;51.068;13.780;2022-10-16T15:29:07;5.33;;;1.90;;
6017;SDS011;3037;51.068;13.780;2022-10-16T15:31:33;2.13;;;1.93;;
6017;SDS011;3037;51.068;13.780;2022-10-16T15:33:59;1.67;;;1.60;;
6017;SDS011;3037;51.068;13.780;2022-10-16T15:36:31;3.03;;;1.90;;
6017;SDS011;3037;51.068;13.780;2022-10-16T15:39:05;1.53;;;1.50;;
6017;SDS011;3037;51.068;13.780;2022-10-16T15:41:36;1.70;;;1.60;;
6017;SDS011;3037;51.068;13.780;2022-10-16T15:44:02;4.13;;;1.60;;
6017;SDS011;3037;51.068;13.780;2022-10-16T15:46:28;8.53;;;2.13;;
6017;SDS011;3037;51.068;13.780;2022-10-16T15:48:56;3.43;;;1.80;;
6017;SDS011;3037;51.068;13.780;2022-10-16T15:51:23;4.00;;;2.13;;
6017;SDS011;3037;51.068;13.780;2022-10-16T15:53:49;3.27;;;1.73;;
6017;SDS011;3037;51.068;13.780;2022-10-16T15:56:16;1.50;;;1.40;;
6017;SDS011;3037;51.068;13.780;2022-10-16T15:58:42;1.53;;;1.40;;
6017;SDS011;3037;51.068;13.780;2022-10-16T16:01:08;2.90;;;2.10;;
6017;SDS011;3037;51.068;13.780;2022-10-16T16:03:35;3.07;;;2.00;;
6017;SDS011;3037;51.068;13.780;2022-10-16T16:06:05;3.93;;;2.43;;
6017;SDS011;3037;51.068;13.780;2022-10-16T16:08:33;7.23;;;3.27;;
6017;SDS011;3037;51.068;13.780;2022-10-16T16:10:59;6.50;;;2.13;;
6017;SDS011;3037;51.068;13.780;2022-10-16T16:13:26;1.93;;;1.70;;
6017;SDS011;3037;51.068;13.780;2022-10-16T16:15:52;5.13;;;2.03;;
6017;SDS011;3037;51.068;13.780;2022-10-16T16:18:18;2.33;;;2.10;;
6017;SDS011;3037;51.068;13.780;2022-10-16T16:20:43;4.10;;;2.30;;
6017;SDS011;3037;51.068;13.780;2022-10-16T16:23:09;4.10;;;2.30;;
6017;SDS011;3037;51.068;13.780;2022-10-16T16:25:34;11.50;;;2.87;;
6017;SDS011;3037;51.068;13.780;2022-10-16T16:28:01;3.00;;;2.67;;
6017;SDS011;3037;51.068;13.780;2022-10-16T16:30:26;7.70;;;2.80;;
6017;SDS011;3037;51.068;13.780;2022-10-16T16:32:52;4.30;;;3.23;;
6017;SDS011;3037;51.068;13.780;2022-10-16T16:35:17;2.73;;;2.53;;
6017;SDS011;3037;51.068;13.780;2022-10-16T16:37:43;5.80;;;4.50;;
6017;SDS011;3037;51.068;13.780;2022-10-16T16:40:08;6.70;;;2.53;;
6017;SDS011;3037;51.068;13.780;2022-10-16T16:42:34;9.47;;;3.80;;
6017;SDS011;3037;51.068;13.780;2022-10-16T16:45:00;5.57;;;4.00;;
6017;SDS011;3037;51.068;13.780;2022-10-16T16:47:25;4.53;;;3.20;;
6017;SDS011;3037;51.068;13.780;2022-10-16T16:49:51;4.13;;;3.83;;
6017;SDS011;3037;51.068;13.780;2022-10-16T16:52:16;5.07;;;3.40;;
6017;SDS011;3037;51.068;13.780;2022-10-16T16:54:42;3.53;;;3.20;;